Time;durP1;ratioP1;P1;durP2;ratioP2;P2;SDS_P1;SDS_P2;PMS_P1;PMS_P2;Temp;Humidity;BMP_temperature;BMP_pressure;BME280_temperature;BME280_humidity;BME280_pressure;Samples;Min_cycle;Max_cycle;Signal;HPM_P1;HPM_P2
2024/03/02 00:01:53;;;;;;;53.03;32.83;;;6.60;99.90;;;5.79;100.00;96862.34;5051828;28;20465;-70
2024/03/02 00:04:22;;;;;;;50.73;33.50;;;6.60;99.90;;;5.76;100.00;96867.31;5040786;28;20457;-72
2024/03/02 00:06:54;;;;;;;53.37;33.33;;;6.60;99.90;;;5.30;100.00;96770.00;5057959;28;20605;-73
2024/03/02 00:09:26;;;;;;;56.00;34.00;;;6.60;99.90;;;5.83;100.00;96865.41;5061670;28;20547;-70
2024/03/02 00:11:55;;;;;;;49.90;32.60;;;6.60;99.90;;;5.93;100.00;96860.41;5045545;28;20525;-69
2024/03/02 00:14:25;;;;;;;49.33;32.30;;;6.60;99.90;;;5.83;100.00;96862.72;5055848;28;20458;-71
2024/03/02 00:16:53;;;;;;;50.70;32.33;;;6.60;99.90;;;5.74;100.00;96856.78;5061575;28;20481;-69
2024/03/02 00:19:21;;;;;;;58.70;34.30;;;6.60;99.90;;;5.85;100.00;96863.34;5055193;28;20569;-69
2024/03/02 00:21:51;;;;;;;51.33;33.20;;;6.60;99.90;;;5.92;100.00;96858.78;5057235;28;20466;-70
2024/03/02 00:24:23;;;;;;;52.63;34.47;;;6.60;99.90;;;5.94;100.00;96861.25;5061612;28;20452;-71
2024/03/02 00:26:50;;;;;;;50.00;33.27;;;6.70;99.90;;;5.94;100.00;96856.69;5058118;28;20536;-71
2024/03/02 00:29:22;;;;;;;49.40;32.60;;;6.60;99.90;;;5.86;100.00;96840.03;5063822;28;20454;-72
2024/03/02 00:31:53;;;;;;;51.50;33.27;;;6.70;99.90;;;6.04;100.00;96850.09;5058184;28;21108;-69
2024/03/02 00:34:23;;;;;;;46.63;30.67;;;6.70;99.90;;;6.08;100.00;96851.28;5062801;28;20453;-68
2024/03/02 00:36:52;;;;;;;50.50;32.00;;;6.70;99.90;;;6.07;100.00;96853.16;5062598;28;20833;-69
2024/03/02 00:39:20;;;;;;;49.10;33.50;;;6.80;99.90;;;6.01;100.00;96855.84;5062944;28;20461;-69
2024/03/02 00:41:47;;;;;;;47.50;30.60;;;6.80;99.90;;;6.08;100.00;96860.19;5061721;28;20856;-69
2024/03/02 00:44:21;;;;;;;46.43;30.93;;;6.80;99.90;;;6.01;100.00;96840.59;5054830;28;20727;-69
2024/03/02 00:46:53;;;;;;;47.70;31.03;;;6.80;99.90;;;6.03;100.00;96854.59;5038835;28;20516;-69
2024/03/02 00:49:26;;;;;;;49.17;30.67;;;6.70;99.90;;;5.89;100.00;96859.19;5060591;28;20564;-70
2024/03/02 00:51:55;;;;;;;45.20;29.53;;;6.70;99.70;;;6.17;100.00;96859.91;5060553;28;21089;-69
2024/03/02 00:54:24;;;;;;;49.57;31.13;;;6.70;99.90;;;6.07;100.00;96868.41;5061150;28;20511;-70
2024/03/02 00:56:52;;;;;;;50.77;30.57;;;6.80;99.70;;;6.03;100.00;96864.53;5059944;28;20472;-69
2024/03/02 00:59:23;;;;;;;53.33;32.77;;;6.70;99.50;;;5.99;100.00;96865.94;5039732;28;20495;-69
2024/03/02 01:01:51;;;;;;;46.57;30.83;;;6.70;99.90;;;6.06;100.00;96864.09;5061891;28;20522;-70
2024/03/02 01:04:21;;;;;;;51.60;30.97;;;6.70;99.90;;;6.14;100.00;96863.84;5037613;28;21066;-69
2024/03/02 01:06:49;;;;;;;51.57;32.47;;;6.80;99.90;;;6.06;100.00;96858.72;5063311;28;20448;-70
2024/03/02 01:09:18;;;;;;;50.80;31.90;;;6.80;99.90;;;6.07;100.00;96861.22;5044323;28;20867;-68
2024/03/02 01:11:47;;;;;;;54.07;33.33;;;6.80;99.90;;;6.07;100.00;96863.06;5060194;28;20474;-69
2024/03/02 01:14:16;;;;;;;50.00;31.73;;;6.80;99.90;;;5.75;100.00;96798.66;5063402;28;20457;-68
2024/03/02 01:16:49;;;;;;;47.73;31.60;;;6.80;99.90;;;6.17;100.00;96870.63;5063794;28;20447;-69
2024/03/02 01:19:16;;;;;;;53.43;31.40;;;6.80;99.80;;;6.05;100.00;96862.44;5060757;28;20455;-68
2024/03/02 01:21:44;;;;;;;45.27;31.63;;;6.80;99.70;;;6.15;100.00;96865.50;5060452;28;20509;-70
2024/03/02 01:24:13;;;;;;;50.97;32.03;;;6.80;99.80;;;6.04;100.00;96861.63;5050713;28;20558;-68
2024/03/02 01:26:41;;;;;;;46.17;31.50;;;6.80;99.70;;;6.07;100.00;96868.41;5060475;28;20539;-70
2024/03/02 01:29:09;;;;;;;50.90;33.13;;;6.80;99.90;;;6.12;100.00;96868.59;5058374;28;20493;-70
2024/03/02 01:31:39;;;;;;;57.40;34.10;;;6.80;99.80;;;6.15;100.00;96873.53;5062981;28;20974;-69
2024/03/02 01:34:09;;;;;;;53.77;30.60;;;6.80;99.20;;;6.05;100.00;96865.13;5053043;28;20461;-69
2024/03/02 01:36:38;;;;;;;47.80;31.60;;;6.80;98.90;;;6.07;100.00;96863.06;5065969;28;20825;-69
2024/03/02 01:39:08;;;;;;;51.80;32.07;;;6.80;99.00;;;6.08;100.00;96868.22;5082034;28;20506;-69
2024/03/02 01:41:40;;;;;;;45.50;31.50;;;6.80;98.90;;;6.01;100.00;96861.22;5058634;28;20463;-69
2024/03/02 01:44:10;;;;;;;48.90;30.07;;;6.70;98.80;;;5.98;100.00;96866.97;5048196;28;20502;-70
2024/03/02 01:46:37;;;;;;;54.03;31.77;;;6.60;98.70;;;5.85;100.00;96868.72;5057925;28;20449;-69
2024/03/02 01:49:05;;;;;;;47.40;32.40;;;6.50;99.10;;;5.88;100.00;96857.56;5060154;28;20987;-69
2024/03/02 01:51:34;;;;;;;50.10;31.23;;;6.50;99.90;;;5.72;100.00;96850.81;5062047;28;20518;-69
2024/03/02 01:54:03;;;;;;;47.67;31.73;;;6.50;99.90;;;5.86;100.00;96854.28;5073610;28;20481;-70
2024/03/02 01:56:32;;;;;;;48.37;31.50;;;6.60;99.90;;;5.74;100.00;96864.00;5060518;28;20449;-69
2024/03/02 01:59:01;;;;;;;50.60;31.63;;;6.50;99.90;;;5.86;100.00;96872.22;5059610;28;20455;-69
2024/03/02 02:01:29;;;;;;;47.33;31.10;;;6.50;99.90;;;5.73;100.00;96859.69;5065182;28;20469;-68
2024/03/02 02:03:56;;;;;;;49.90;31.07;;;6.40;99.90;;;5.81;100.00;96870.16;5055736;28;20997;-70
2024/03/02 02:06:23;;;;;;;49.80;32.73;;;6.40;99.90;;;5.76;100.00;96869.97;5062220;28;20949;-69
2024/03/02 02:08:55;;;;;;;50.77;31.33;;;6.40;99.90;;;5.87;100.00;96872.00;5064037;28;20938;-70
2024/03/02 02:11:24;;;;;;;49.43;31.07;;;6.50;99.90;;;5.87;100.00;96869.31;5059109;28;20552;-68
2024/03/02 02:13:52;;;;;;;51.10;33.87;;;6.50;99.90;;;5.40;100.00;96791.78;5041102;28;21145;-68
2024/03/02 02:16:28;;;;;;;52.83;33.50;;;6.50;99.90;;;5.90;100.00;96865.38;5060566;28;20467;-69
2024/03/02 02:18:57;;;;;;;46.60;31.70;;;6.50;99.90;;;5.75;100.00;96857.63;5058290;28;20474;-69
2024/03/02 02:21:27;;;;;;;55.20;34.30;;;6.50;99.90;;;5.80;100.00;96863.16;5064478;28;21293;-69
2024/03/02 02:23:54;;;;;;;50.43;33.00;;;6.40;99.90;;;5.82;100.00;96866.44;5039411;28;20468;-68
2024/03/02 02:26:21;;;;;;;51.50;32.10;;;6.50;99.90;;;5.73;100.00;96862.38;5060890;28;20465;-69
2024/03/02 02:28:50;;;;;;;49.40;32.33;;;6.40;99.90;;;5.81;100.00;96864.78;5063286;28;20836;-69
2024/03/02 02:31:17;;;;;;;55.23;33.20;;;6.40;99.90;;;5.71;100.00;96861.75;5062030;28;20536;-68
2024/03/02 02:33:47;;;;;;;50.60;31.53;;;6.40;99.90;;;5.88;100.00;96867.44;5049591;28;20911;-68
2024/03/02 02:36:14;;;;;;;54.63;33.67;;;6.50;99.90;;;5.77;100.00;96858.22;5054448;28;20466;-68
2024/03/02 02:38:47;;;;;;;49.13;31.67;;;6.50;99.90;;;5.90;100.00;96871.56;5063975;28;20479;-70
2024/03/02 02:41:16;;;;;;;50.30;32.67;;;6.50;99.90;;;5.83;100.00;96870.75;5058494;28;20452;-70
2024/03/02 02:43:44;;;;;;;51.73;32.37;;;6.50;99.90;;;5.86;100.00;96870.34;5060474;28;20453;-69
2024/03/02 02:46:12;;;;;;;48.70;32.20;;;6.50;99.90;;;5.88;100.00;96868.28;5058957;28;20806;-69
2024/03/02 02:48:40;;;;;;;50.07;32.07;;;6.50;99.90;;;5.88;100.00;96862.91;5058659;28;20473;-69
2024/03/02 02:51:08;;;;;;;51.83;33.00;;;6.60;99.90;;;5.93;100.00;96871.13;5058701;28;20460;-70
2024/03/02 02:53:40;;;;;;;46.63;30.90;;;6.60;99.90;;;6.14;100.00;96871.91;5059431;28;20489;-70
2024/03/02 02:56:09;;;;;;;48.10;33.00;;;6.70;99.90;;;6.02;100.00;96862.88;5058533;28;20530;-70
2024/03/02 02:58:37;;;;;;;49.03;33.43;;;6.70;99.90;;;6.06;100.00;96864.91;5057588;28;20488;-69
2024/03/02 03:01:05;;;;;;;47.57;33.00;;;6.70;99.90;;;6.07;100.00;96871.09;5042576;28;20962;-68
2024/03/02 03:03:32;;;;;;;48.57;32.63;;;6.70;99.90;;;6.06;100.00;96872.13;5056482;28;20462;-69
2024/03/02 03:06:02;;;;;;;49.13;31.87;;;6.70;99.90;;;6.08;100.00;96867.38;5056216;28;20486;-69
2024/03/02 03:08:31;;;;;;;50.67;30.77;;;6.80;99.90;;;6.12;100.00;96860.53;5058157;28;20469;-68
2024/03/02 03:10:58;;;;;;;51.70;32.10;;;6.80;99.90;;;6.04;100.00;96864.31;5058333;28;21096;-69
2024/03/02 03:13:28;;;;;;;50.23;30.20;;;6.80;99.90;;;6.07;100.00;96865.75;5062076;28;21179;-69
2024/03/02 03:15:56;;;;;;;48.17;29.17;;;6.80;99.90;;;6.12;100.00;96868.59;5057775;28;20823;-68
2024/03/02 03:18:25;;;;;;;50.23;30.97;;;6.80;99.90;;;6.11;100.00;96861.59;5059750;28;20473;-70
2024/03/02 03:20:54;;;;;;;51.83;31.13;;;6.90;99.90;;;6.15;100.00;96861.97;5053095;28;21050;-69
2024/03/02 03:23:23;;;;;;;45.30;30.27;;;6.80;99.90;;;6.17;100.00;96871.47;5057667;28;20463;-68
2024/03/02 03:25:52;;;;;;;49.17;30.93;;;6.80;99.90;;;6.16;100.00;96874.34;5063908;28;20459;-69
2024/03/02 03:28:21;;;;;;;43.80;30.60;;;6.80;99.90;;;6.09;100.00;96869.03;5057217;28;20461;-69
2024/03/02 03:30:51;;;;;;;47.13;31.17;;;6.80;99.90;;;5.85;100.00;96833.03;5060066;28;20464;-69
2024/03/02 03:33:20;;;;;;;45.40;28.47;;;6.80;99.90;;;6.04;100.00;96872.34;5056595;28;20945;-68
2024/03/02 03:35:48;;;;;;;45.20;29.57;;;6.80;99.90;;;6.06;100.00;96856.06;5059284;28;20497;-69
2024/03/02 03:38:17;;;;;;;49.73;28.03;;;6.80;99.90;;;6.10;100.00;96854.56;5024286;28;20451;-70
2024/03/02 03:40:46;;;;;;;46.80;29.83;;;6.80;99.90;;;6.05;100.00;96863.25;5058295;28;20462;-69
2024/03/02 03:43:17;;;;;;;46.27;28.30;;;6.80;99.90;;;6.07;100.00;96871.09;5076672;28;20838;-69
2024/03/02 03:45:44;;;;;;;41.60;27.93;;;6.80;99.90;;;6.18;100.00;96873.09;5048861;28;20511;-69
2024/03/02 03:48:17;;;;;;;39.57;26.77;;;6.80;99.90;;;6.24;100.00;96877.59;5065021;28;20865;-69
2024/03/02 03:50:44;;;;;;;40.70;28.63;;;6.90;99.90;;;6.21;100.00;96872.66;5043721;28;20449;-69
2024/03/02 03:53:17;;;;;;;38.10;26.63;;;6.90;99.90;;;5.78;100.00;96811.63;5055508;28;20479;-69
2024/03/02 03:55:49;;;;;;;37.60;25.50;;;6.90;99.70;;;6.06;100.00;96869.47;5060918;28;20451;-69
2024/03/02 03:58:17;;;;;;;35.83;24.00;;;6.80;99.40;;;6.22;100.00;96874.31;5042118;28;20451;-68
2024/03/02 04:00:45;;;;;;;39.23;24.87;;;6.90;99.70;;;6.27;100.00;96876.34;5059390;28;20473;-68
2024/03/02 04:03:15;;;;;;;36.43;22.53;;;6.90;99.80;;;6.31;100.00;96874.06;5057864;28;21017;-69
2024/03/02 04:05:48;;;;;;;38.90;23.67;;;6.90;99.00;;;6.23;100.00;96873.28;5060340;28;20465;-69
2024/03/02 04:08:18;;;;;;;36.27;23.40;;;6.90;98.50;;;6.14;100.00;96839.72;5062474;28;20961;-68
2024/03/02 04:10:45;;;;;;;29.77;21.27;;;7.00;98.60;;;6.14;100.00;96871.06;5066206;28;20446;-71
2024/03/02 04:13:13;;;;;;;34.53;21.03;;;6.90;97.80;;;6.09;100.00;96875.22;5060027;28;20510;-69
2024/03/02 04:15:41;;;;;;;31.27;21.30;;;6.90;98.10;;;6.09;100.00;96875.22;5059670;28;20437;-69
2024/03/02 04:18:08;;;;;;;33.03;23.10;;;6.80;97.80;;;5.93;100.00;96862.28;5063770;28;20454;-70
2024/03/02 04:20:37;;;;;;;33.63;21.40;;;6.80;98.40;;;5.96;100.00;96876.06;5046672;28;20464;-69
2024/03/02 04:23:10;;;;;;;32.30;21.50;;;6.70;98.80;;;5.92;100.00;96869.50;5059931;28;20536;-68
2024/03/02 04:25:38;;;;;;;31.43;21.97;;;6.70;98.90;;;5.92;100.00;96874.84;5066064;28;20459;-69
2024/03/02 04:28:06;;;;;;;27.93;20.50;;;6.60;98.80;;;5.90;100.00;96879.63;5059207;28;20453;-70
2024/03/02 04:30:35;;;;;;;29.07;19.70;;;6.50;99.40;;;5.74;100.00;96878.22;5061081;28;20507;-69
2024/03/02 04:33:05;;;;;;;29.47;20.60;;;6.50;99.90;;;5.73;100.00;96883.81;5060149;28;20477;-69
2024/03/02 04:35:34;;;;;;;35.00;21.30;;;6.50;99.90;;;5.71;100.00;96872.50;5061961;28;20459;-70
2024/03/02 04:38:04;;;;;;;32.33;21.73;;;6.50;99.90;;;5.62;100.00;96875.38;5059318;28;20453;-69
2024/03/02 04:40:32;;;;;;;34.33;21.70;;;6.40;99.90;;;5.64;100.00;96884.03;5065073;28;20453;-69
2024/03/02 04:43:00;;;;;;;36.10;21.57;;;6.40;99.90;;;5.56;100.00;96881.59;5055543;28;20971;-69
2024/03/02 04:45:27;;;;;;;34.17;21.03;;;6.30;99.90;;;5.63;100.00;96890.44;5060148;28;20454;-69
2024/03/02 04:47:54;;;;;;;33.00;21.47;;;6.30;99.90;;;5.05;100.00;96811.69;5061225;28;20852;-69
2024/03/02 04:50:22;;;;;;;34.87;21.63;;;6.20;99.90;;;5.48;100.00;96884.50;5056051;28;20442;-69
2024/03/02 04:52:49;;;;;;;37.53;22.37;;;6.20;99.90;;;5.46;100.00;96891.94;5058204;28;20477;-69
2024/03/02 04:55:29;;;;;;;29.70;20.67;;;6.20;99.90;;;5.46;100.00;96886.56;5062361;28;20452;-68
2024/03/02 04:57:56;;;;;;;33.50;21.87;;;6.20;99.90;;;5.46;100.00;96891.94;5055879;28;20457;-68
2024/03/02 05:00:26;;;;;;;33.50;21.40;;;6.20;99.90;;;4.99;100.00;96827.75;5061649;28;20464;-68
2024/03/02 05:02:53;;;;;;;37.00;21.87;;;6.10;99.90;;;5.42;100.00;96890.72;5064231;28;20502;-68
2024/03/02 05:05:20;;;;;;;33.73;21.67;;;6.10;99.90;;;5.44;100.00;96888.66;5069519;28;20484;-68
2024/03/02 05:07:47;;;;;;;33.67;20.90;;;6.10;99.90;;;5.37;100.00;96894.00;5058906;28;20469;-68
2024/03/02 05:10:17;;;;;;;38.90;23.93;;;6.00;99.90;;;5.43;100.00;96893.16;5061729;28;20458;-68
2024/03/02 05:12:56;;;;;;;33.23;21.10;;;6.10;99.90;;;5.35;100.00;96891.53;5064005;28;20465;-69
2024/03/02 05:15:26;;;;;;;36.20;21.90;;;6.10;99.90;;;5.30;100.00;96894.03;5060793;28;20449;-69
2024/03/02 05:17:54;;;;;;;34.47;22.87;;;6.00;99.90;;;4.95;100.00;96849.59;5063091;28;20448;-69
2024/03/02 05:20:22;;;;;;;33.63;20.97;;;6.00;99.90;;;5.26;100.00;96906.19;5063834;28;20460;-68
2024/03/02 05:22:50;;;;;;;34.40;22.40;;;5.90;99.90;;;5.08;100.00;96902.31;5051145;28;20461;-68
2024/03/02 05:25:18;;;;;;;34.60;22.07;;;5.80;99.90;;;5.07;100.00;96908.66;5056653;28;20555;-69
2024/03/02 05:27:46;;;;;;;36.60;23.03;;;5.80;99.90;;;5.10;100.00;96902.09;5066334;28;20456;-68
2024/03/02 05:30:15;;;;;;;33.67;21.30;;;5.80;99.90;;;4.99;100.00;96903.53;5063759;28;20542;-69
2024/03/02 05:32:42;;;;;;;33.00;21.80;;;5.70;99.90;;;5.04;100.00;96894.91;5064187;28;20521;-68
2024/03/02 05:35:11;;;;;;;34.20;22.83;;;5.80;99.90;;;5.04;100.00;96911.78;5058515;28;21356;-68
2024/03/02 05:37:39;;;;;;;38.63;23.27;;;5.70;99.90;;;5.10;100.00;96907.44;5053589;28;20972;-69
2024/03/02 05:40:08;;;;;;;37.67;22.13;;;5.80;99.90;;;5.03;100.00;96903.97;5042753;28;21099;-68
2024/03/02 05:42:37;;;;;;;37.60;22.47;;;5.80;99.90;;;5.00;100.00;96901.69;5065973;28;20481;-68
2024/03/02 05:45:05;;;;;;;39.40;23.30;;;5.70;99.90;;;4.93;100.00;96905.19;5059788;28;20478;-69
2024/03/02 05:47:32;;;;;;;40.30;23.10;;;5.70;99.90;;;4.93;100.00;96915.91;5062160;28;20522;-70
2024/03/02 05:50:00;;;;;;;39.80;23.87;;;5.70;99.90;;;4.93;100.00;96913.22;5059734;28;20452;-68
2024/03/02 05:52:27;;;;;;;36.53;21.97;;;5.60;99.90;;;4.95;100.00;96913.84;5052603;28;20465;-68
2024/03/02 05:54:57;;;;;;;36.80;22.43;;;5.70;99.90;;;4.91;100.00;96917.13;5063860;28;20480;-68
2024/03/02 05:57:38;;;;;;;38.27;24.17;;;5.60;99.90;;;4.88;100.00;96922.91;5062502;28;20460;-68
2024/03/02 06:00:16;;;;;;;34.60;21.60;;;5.60;99.90;;;4.87;100.00;96914.06;5065539;28;20941;-69
2024/03/02 06:02:45;;;;;;;41.20;24.43;;;5.60;99.90;;;4.88;100.00;96917.53;5061084;28;20508;-69
2024/03/02 06:05:12;;;;;;;42.93;22.30;;;5.60;99.90;;;4.93;100.00;96917.78;5046033;28;20954;-69
2024/03/02 06:07:42;;;;;;;33.50;21.13;;;5.60;99.90;;;4.84;100.00;96914.44;5057092;28;20519;-69
2024/03/02 06:10:11;;;;;;;37.17;24.67;;;5.60;99.90;;;4.78;100.00;96918.81;5054636;28;20552;-69
2024/03/02 06:12:38;;;;;;;38.00;21.53;;;5.60;99.90;;;4.86;100.00;96908.91;5045622;28;20988;-68
2024/03/02 06:15:11;;;;;;;38.17;23.50;;;5.60;99.90;;;4.84;100.00;96911.78;5077204;28;20609;-70
2024/03/02 06:17:40;;;;;;;39.73;24.57;;;5.60;99.90;;;4.89;100.00;96913.84;5046503;28;20465;-69
2024/03/02 06:20:10;;;;;;;38.87;24.30;;;5.60;99.90;;;4.85;100.00;96908.06;5058827;28;21187;-69
2024/03/02 06:22:39;;;;;;;36.57;23.30;;;5.60;99.90;;;4.43;100.00;96846.72;5059254;28;20453;-69
2024/03/02 06:25:09;;;;;;;39.00;22.37;;;5.60;99.90;;;4.89;100.00;96908.47;5061125;28;20507;-70
2024/03/02 06:27:39;;;;;;;37.20;22.13;;;5.60;99.90;;;4.90;100.00;96910.97;5078277;28;20445;-69
2024/03/02 06:30:10;;;;;;;42.80;23.57;;;5.70;99.90;;;4.95;100.00;96910.34;5060421;28;20472;-69
2024/03/02 06:32:37;;;;;;;39.83;23.63;;;5.60;99.90;;;4.94;100.00;96900.69;5061439;28;20483;-70
2024/03/02 06:35:09;;;;;;;39.40;23.37;;;5.70;99.90;;;4.88;100.00;96925.56;5061794;28;20477;-68
2024/03/02 06:37:37;;;;;;;38.60;23.50;;;5.70;99.90;;;4.45;100.00;96838.50;5059194;28;20449;-67
2024/03/02 06:40:07;;;;;;;38.67;23.27;;;5.60;99.90;;;4.96;100.00;96920.84;5039854;28;20464;-68
2024/03/02 06:42:35;;;;;;;41.13;24.90;;;5.70;99.90;;;4.77;100.00;96890.34;5059672;28;20518;-69
2024/03/02 06:45:03;;;;;;;40.93;24.77;;;5.70;99.90;;;4.93;100.00;96917.78;5073759;28;20462;-68
2024/03/02 06:47:33;;;;;;;41.17;22.80;;;5.60;99.90;;;4.90;100.00;96913.66;5061722;28;20448;-69
2024/03/02 06:50:02;;;;;;;39.63;22.70;;;5.70;99.90;;;4.94;100.00;96922.09;5055096;28;20801;-71
2024/03/02 06:52:30;;;;;;;40.63;23.30;;;5.70;99.90;;;4.97;100.00;96911.78;5051012;28;20532;-72
2024/03/02 06:54:57;;;;;;;44.07;25.57;;;5.70;99.90;;;4.93;100.00;96907.88;5058166;28;20484;-71
2024/03/02 06:57:25;;;;;;;39.90;22.33;;;5.70;99.90;;;5.07;100.00;96907.88;5060008;28;20484;-69
2024/03/02 06:59:54;;;;;;;43.30;24.70;;;5.80;99.90;;;5.12;100.00;96902.69;5076653;28;20558;-83
2024/03/02 07:02:22;;;;;;;44.87;23.60;;;5.90;99.90;;;5.09;100.00;96903.97;5058131;28;20465;-71
2024/03/02 07:04:51;;;;;;;43.50;24.77;;;5.90;99.90;;;5.17;100.00;96905.59;5059440;28;20509;-74
2024/03/02 07:07:18;;;;;;;42.23;23.80;;;6.00;99.90;;;5.24;100.00;96902.91;5056610;28;20485;-71
2024/03/02 07:09:46;;;;;;;41.27;23.30;;;6.00;99.90;;;5.21;100.00;96896.09;5058105;28;20966;-72
2024/03/02 07:12:14;;;;;;;41.43;23.33;;;6.10;99.90;;;5.36;100.00;96909.25;5055963;28;20533;-71
2024/03/02 07:17:29;;;;;;;37.70;23.33;;;6.20;99.90;;;5.26;100.00;96847.28;5056176;28;20551;-72
2024/03/02 07:19:58;;;;;;;36.70;23.50;;;6.40;99.90;;;5.28;100.00;96853.25;5052701;28;20472;-73
2024/03/02 07:22:25;;;;;;;39.47;24.70;;;6.40;99.90;;;5.85;100.00;96929.53;5060085;28;20929;-72
2024/03/02 07:24:53;;;;;;;38.63;22.17;;;6.60;99.90;;;6.01;100.00;96928.25;5055857;28;20452;-73
2024/03/02 07:27:21;;;;;;;40.90;23.57;;;6.70;99.90;;;6.54;100.00;96929.88;5059569;28;20818;-72
2024/03/02 07:29:48;;;;;;;33.90;21.50;;;7.10;99.90;;;6.90;100.00;96927.53;5058953;28;20457;-72
2024/03/02 07:32:16;;;;;;;35.67;20.80;;;7.40;99.20;;;7.21;98.91;96936.59;5051686;28;20465;-73
2024/03/02 07:34:43;;;;;;;31.00;20.67;;;7.70;96.20;;;7.40;97.43;96936.63;5056311;28;20484;-73
2024/03/02 07:37:11;;;;;;;25.93;18.23;;;7.90;94.50;;;7.31;96.31;96931.53;5059944;28;20453;-73
2024/03/02 07:39:39;;;;;;;26.50;19.83;;;8.10;92.70;;;7.50;95.62;96934.22;5053809;28;20466;-73
2024/03/02 07:42:07;;;;;;;29.17;18.07;;;8.10;92.30;;;7.23;96.07;96915.69;5059656;28;20457;-72
2024/03/02 07:44:34;;;;;;;28.13;18.40;;;8.10;92.10;;;7.64;94.88;96941.13;5059691;28;21175;-72
2024/03/02 07:47:01;;;;;;;25.83;18.50;;;8.20;92.20;;;7.41;94.56;96933.69;5064266;28;20514;-73
2024/03/02 07:49:28;;;;;;;25.63;17.43;;;8.20;91.60;;;8.02;91.72;96933.06;5058017;28;20463;-72
2024/03/02 07:51:56;;;;;;;28.57;18.30;;;8.40;91.70;;;7.99;91.05;96933.53;5056837;28;20530;-74
2024/03/02 07:54:24;;;;;;;24.83;17.83;;;8.50;91.00;;;7.73;91.80;96935.47;5061777;28;20469;-77
2024/03/02 07:56:52;;;;;;;21.90;16.10;;;8.50;90.80;;;7.76;93.04;96937.69;5058741;28;20516;-74
2024/03/02 07:59:19;;;;;;;25.53;17.87;;;8.50;90.90;;;7.73;92.62;96936.25;5059643;28;20450;-75
2024/03/02 08:01:46;;;;;;;24.10;18.07;;;8.50;90.80;;;7.82;92.82;96934.13;5057093;28;20464;-74
2024/03/02 08:04:14;;;;;;;22.87;16.63;;;8.50;91.10;;;7.65;92.33;96940.06;5050497;28;20457;-71
2024/03/02 08:06:41;;;;;;;21.83;16.70;;;8.50;90.60;;;7.84;91.97;96925.81;5056383;28;20472;-71
2024/03/02 08:09:10;;;;;;;23.67;16.27;;;8.60;90.80;;;7.99;91.01;96930.81;5058370;28;20449;-72
2024/03/02 08:11:38;;;;;;;24.03;16.87;;;8.60;90.60;;;7.87;91.11;96942.34;5059371;28;20514;-71
2024/03/02 08:14:06;;;;;;;23.00;16.17;;;8.60;90.50;;;8.11;89.67;96937.06;5058043;28;20487;-71
2024/03/02 08:16:34;;;;;;;18.53;14.63;;;8.80;90.20;;;8.07;89.99;96942.09;5058411;28;20510;-71
2024/03/02 08:19:01;;;;;;;20.93;15.30;;;8.70;89.90;;;7.91;89.34;96932.75;5055742;28;20499;-71
2024/03/02 08:21:30;;;;;;;22.93;15.60;;;8.80;89.50;;;7.85;90.04;96928.28;5050392;28;20455;-72
2024/03/02 08:23:58;;;;;;;18.30;15.10;;;8.70;90.00;;;8.04;89.64;96936.34;5051643;28;20477;-71
2024/03/02 08:26:28;;;;;;;23.90;16.23;;;8.80;89.50;;;8.20;89.67;96938.41;5067996;28;20560;-72
2024/03/02 08:28:57;;;;;;;19.73;14.63;;;8.80;89.60;;;8.27;87.36;96929.44;5050639;28;20898;-71
2024/03/02 08:31:24;;;;;;;23.17;16.73;;;8.90;88.90;;;8.68;86.62;96935.94;5056321;28;20978;-72
2024/03/02 08:33:52;;;;;;;19.90;14.57;;;9.20;89.10;;;8.43;86.80;96939.56;5056580;28;20461;-71
2024/03/02 08:36:19;;;;;;;21.97;14.93;;;9.10;88.40;;;8.53;86.02;96938.22;5053090;28;20468;-72
2024/03/02 08:38:47;;;;;;;18.97;14.00;;;9.10;88.40;;;8.58;85.82;96946.47;5051308;28;20467;-73
2024/03/02 08:41:15;;;;;;;22.47;15.80;;;9.10;88.30;;;8.76;84.82;96946.38;5059038;28;21268;-72
2024/03/02 08:43:44;;;;;;;18.60;14.00;;;9.30;87.90;;;8.76;84.50;96943.69;5061761;28;20468;-74
2024/03/02 08:46:12;;;;;;;18.17;12.90;;;9.40;87.40;;;8.77;84.31;96942.63;5064498;28;20455;-74
2024/03/02 08:48:40;;;;;;;18.83;13.57;;;9.40;87.20;;;8.26;84.70;96874.78;5062443;28;20445;-72
2024/03/02 08:51:10;;;;;;;18.60;13.50;;;9.40;86.90;;;8.83;83.47;96948.97;5063943;28;20475;-74
2024/03/02 08:53:38;;;;;;;17.80;12.87;;;9.50;86.90;;;8.85;83.36;96941.50;5054850;28;20451;-73
2024/03/02 08:56:06;;;;;;;18.20;14.10;;;9.60;86.40;;;9.11;82.63;96939.44;5059425;28;20455;-74
2024/03/02 08:58:33;;;;;;;15.83;11.90;;;9.70;86.20;;;9.35;80.72;96944.84;5057565;28;21314;-75
2024/03/02 09:01:01;;;;;;;18.80;13.10;;;9.90;85.80;;;9.39;81.16;96940.59;5060998;28;20557;-75
2024/03/02 09:03:29;;;;;;;14.77;12.17;;;9.90;85.70;;;9.63;79.37;96946.00;5058972;28;20524;-74
2024/03/02 09:05:57;;;;;;;17.10;13.50;;;10.20;84.20;;;9.52;78.95;96938.72;5062539;28;20455;-72
2024/03/02 09:08:24;;;;;;;13.87;11.67;;;10.30;83.50;;;9.53;78.65;96951.16;5065686;28;20457;-71
2024/03/02 09:10:52;;;;;;;14.23;11.57;;;10.30;83.10;;;9.35;79.73;96951.06;5060215;28;20449;-72
2024/03/02 09:13:19;;;;;;;16.47;12.60;;;10.20;83.30;;;9.55;79.36;96946.34;5076977;28;20457;-76
2024/03/02 09:15:47;;;;;;;13.87;11.90;;;10.20;83.20;;;9.80;77.22;96956.91;5081432;28;20484;-72
2024/03/02 09:18:15;;;;;;;12.43;11.10;;;10.50;82.60;;;9.89;76.19;96950.06;5063498;28;20450;-74
2024/03/02 09:20:43;;;;;;;11.33;10.07;;;10.60;82.30;;;10.25;75.91;96949.19;5062455;28;20459;-74
2024/03/02 09:23:11;;;;;;;14.00;10.97;;;10.70;82.50;;;9.83;76.28;96956.44;5060760;28;20468;-72
2024/03/02 09:25:38;;;;;;;12.20;10.30;;;10.70;81.40;;;9.82;75.85;96938.59;5063052;28;20452;-74
2024/03/02 09:28:06;;;;;;;14.40;11.90;;;10.60;81.50;;;9.70;75.96;96886.53;5065087;28;20469;-75
2024/03/02 09:30:34;;;;;;;14.57;11.23;;;10.70;81.60;;;10.12;74.96;96943.00;5058449;28;20505;-73
2024/03/02 09:33:01;;;;;;;14.83;11.10;;;10.70;81.60;;;10.27;74.35;96944.38;5055069;28;20526;-70
2024/03/02 09:35:28;;;;;;;14.57;12.10;;;10.80;81.20;;;10.39;73.50;96922.72;5059980;28;20479;-74
2024/03/02 09:37:58;;;;;;;12.60;10.63;;;11.00;80.90;;;10.55;72.77;96937.38;5060314;28;20483;-73
2024/03/02 09:40:25;;;;;;;14.27;11.03;;;11.20;80.60;;;10.41;73.97;96934.97;5061768;28;20503;-80
2024/03/02 09:42:53;;;;;;;14.20;10.47;;;11.10;80.40;;;10.24;73.76;96942.16;5054746;28;20465;-74
2024/03/02 09:45:24;;;;;;;14.43;11.37;;;11.00;80.40;;;10.56;73.53;96941.72;5062444;28;21008;-77
2024/03/02 09:47:52;;;;;;;14.17;12.20;;;11.20;80.60;;;10.68;72.02;96930.84;5060244;28;20470;-76
2024/03/02 09:50:19;;;;;;;19.00;12.03;;;11.40;80.00;;;11.02;71.43;96907.38;5061022;28;20462;-75
2024/03/02 09:52:50;;;;;;;12.93;10.70;;;11.70;80.00;;;11.22;70.72;96937.66;5075333;28;20462;-82
2024/03/02 09:55:21;;;;;;;11.80;10.50;;;11.80;79.40;;;11.42;70.07;96935.31;5059623;28;20482;-84
2024/03/02 09:57:49;;;;;;;13.13;11.67;;;11.90;79.20;;;11.57;69.08;96933.88;5056672;28;20464;-70
2024/03/02 10:00:16;;;;;;;12.60;10.80;;;12.20;78.70;;;11.71;68.73;96931.63;5059101;28;20959;-70
2024/03/02 10:02:44;;;;;;;10.50;9.40;;;12.20;78.40;;;11.74;68.27;96929.25;5061819;28;20459;-70
2024/03/02 10:05:12;;;;;;;11.67;10.20;;;12.30;78.20;;;12.03;67.37;96928.28;5059018;28;20462;-71
2024/03/02 10:07:40;;;;;;;11.13;9.80;;;12.50;78.00;;;12.52;65.87;96916.69;5058703;28;20451;-71
2024/03/02 10:10:17;;;;;;;11.90;10.70;;;12.80;77.50;;;12.09;65.96;96902.94;5050376;28;20466;-70
2024/03/02 10:12:46;;;;;;;13.57;10.27;;;12.90;76.60;;;12.25;66.11;96917.47;5080294;28;20446;-72
2024/03/02 10:15:14;;;;;;;13.13;10.00;;;12.90;76.70;;;12.27;65.86;96919.94;5061255;28;20475;-72
2024/03/02 10:17:41;;;;;;;11.50;10.30;;;12.90;76.50;;;12.22;65.54;96911.75;5061615;28;20483;-71
2024/03/02 10:20:25;;;;;;;13.00;9.87;;;12.90;76.10;;;12.44;65.19;96920.66;5055234;28;20455;-72
2024/03/02 10:22:52;;;;;;;12.70;11.13;;;12.90;76.10;;;12.33;65.76;96918.91;5059253;28;20468;-72